sensor_id;sensor_type;location;lat;lon;timestamp;P1;P2;P0
77896;PMS5003;67092;64.282;21.056;2023-02-01T00:02:08;2;2;
77896;PMS5003;67092;64.282;21.056;2023-02-01T00:04:33;1;1;
77896;PMS5003;67092;64.282;21.056;2023-02-01T00:06:59;2;1;
77896;PMS5003;67092;64.282;21.056;2023-02-01T00:09:25;1;1;
77896;PMS5003;67092;64.282;21.056;2023-02-01T00:11:50;2;1;
77896;PMS5003;67092;64.282;21.056;2023-02-01T00:14:16;1;1;
77896;PMS5003;67092;64.282;21.056;2023-02-01T00:16:41;0;0;
77896;PMS5003;67092;64.282;21.056;2023-02-01T00:19:08;2;2;
77896;PMS5003;67092;64.282;21.056;2023-02-01T00:21:33;2;2;
77896;PMS5003;67092;64.282;21.056;2023-02-01T00:23:58;1;1;
77896;PMS5003;67092;64.282;21.056;2023-02-01T00:26:26;1;0;
77896;PMS5003;67092;64.282;21.056;2023-02-01T00:28:49;0;0;
77896;PMS5003;67092;64.282;21.056;2023-02-01T00:31:15;1;1;
77896;PMS5003;67092;64.282;21.056;2023-02-01T00:33:40;1;1;
77896;PMS5003;67092;64.282;21.056;2023-02-01T00:36:06;1;1;
77896;PMS5003;67092;64.282;21.056;2023-02-01T00:38:32;1;1;
77896;PMS5003;67092;64.282;21.056;2023-02-01T00:41:01;1;1;
77896;PMS5003;67092;64.282;21.056;2023-02-01T00:43:23;1;0;
77896;PMS5003;67092;64.282;21.056;2023-02-01T00:45:48;2;1;
77896;PMS5003;67092;64.282;21.056;2023-02-01T00:48:14;1;1;
77896;PMS5003;67092;64.282;21.056;2023-02-01T00:50:41;1;1;
77896;PMS5003;67092;64.282;21.056;2023-02-01T00:53:05;1;1;
77896;PMS5003;67092;64.282;21.056;2023-02-01T00:55:31;2;1;
77896;PMS5003;67092;64.282;21.056;2023-02-01T00:57:56;1;1;
77896;PMS5003;67092;64.282;21.056;2023-02-01T01:00:22;1;1;
77896;PMS5003;67092;64.282;21.056;2023-02-01T01:02:47;1;1;
77896;PMS5003;67092;64.282;21.056;2023-02-01T01:05:13;1;1;
77896;PMS5003;67092;64.282;21.056;2023-02-01T01:07:39;1;1;
77896;PMS5003;67092;64.282;21.056;2023-02-01T01:10:05;1;1;
77896;PMS5003;67092;64.282;21.056;2023-02-01T01:12:30;2;1;
77896;PMS5003;67092;64.282;21.056;2023-02-01T01:14:55;0;0;
77896;PMS5003;67092;64.282;21.056;2023-02-01T01:17:21;0;0;
77896;PMS5003;67092;64.282;21.056;2023-02-01T01:19:47;1;1;
77896;PMS5003;67092;64.282;21.056;2023-02-01T01:22:13;1;1;
77896;PMS5003;67092;64.282;21.056;2023-02-01T01:24:38;1;1;
77896;PMS5003;67092;64.282;21.056;2023-02-01T01:27:03;0;0;
77896;PMS5003;67092;64.282;21.056;2023-02-01T01:29:29;1;1;
77896;PMS5003;67092;64.282;21.056;2023-02-01T01:31:55;0;0;
77896;PMS5003;67092;64.282;21.056;2023-02-01T01:34:20;1;1;
77896;PMS5003;67092;64.282;21.056;2023-02-01T01:36:46;1;1;
77896;PMS5003;67092;64.282;21.056;2023-02-01T01:39:12;0;0;
77896;PMS5003;67092;64.282;21.056;2023-02-01T01:41:37;0;0;
77896;PMS5003;67092;64.282;21.056;2023-02-01T01:44:03;2;1;
77896;PMS5003;67092;64.282;21.056;2023-02-01T01:46:29;1;1;
77896;PMS5003;67092;64.282;21.056;2023-02-01T01:48:59;1;1;
77896;PMS5003;67092;64.282;21.056;2023-02-01T01:51:20;0;0;
77896;PMS5003;67092;64.282;21.056;2023-02-01T01:53:46;0;0;
77896;PMS5003;67092;64.282;21.056;2023-02-01T01:56:11;1;1;
77896;PMS5003;67092;64.282;21.056;2023-02-01T01:58:36;1;1;
77896;PMS5003;67092;64.282;21.056;2023-02-01T02:01:02;0;0;
77896;PMS5003;67092;64.282;21.056;2023-02-01T02:03:29;0;0;
77896;PMS5003;67092;64.282;21.056;2023-02-01T02:05:53;0;0;
77896;PMS5003;67092;64.282;21.056;2023-02-01T02:08:19;0;0;
77896;PMS5003;67092;64.282;21.056;2023-02-01T02:10:44;0;0;
77896;PMS5003;67092;64.282;21.056;2023-02-01T02:13:10;1;1;
77896;PMS5003;67092;64.282;21.056;2023-02-01T02:15:36;0;0;
77896;PMS5003;67092;64.282;21.056;2023-02-01T02:18:04;0;0;
77896;PMS5003;67092;64.282;21.056;2023-02-01T02:22:57;1;1;
77896;PMS5003;67092;64.282;21.056;2023-02-01T02:25:22;0;0;
77896;PMS5003;67092;64.282;21.056;2023-02-01T02:27:45;0;0;
77896;PMS5003;67092;64.282;21.056;2023-02-01T02:35:01;0;0;
77896;PMS5003;67092;64.282;21.056;2023-02-01T02:37:28;0;0;
77896;PMS5003;67092;64.282;21.056;2023-02-01T02:39:53;1;1;
77896;PMS5003;67092;64.282;21.056;2023-02-01T02:42:19;0;0;
77896;PMS5003;67092;64.282;21.056;2023-02-01T02:44:45;0;0;
77896;PMS5003;67092;64.282;21.056;2023-02-01T02:47:10;1;1;
77896;PMS5003;67092;64.282;21.056;2023-02-01T02:49:34;0;0;
77896;PMS5003;67092;64.282;21.056;2023-02-01T02:52:01;0;0;
77896;PMS5003;67092;64.282;21.056;2023-02-01T02:54:25;1;1;
77896;PMS5003;67092;64.282;21.056;2023-02-01T02:56:51;0;0;
77896;PMS5003;67092;64.282;21.056;2023-02-01T02:59:17;0;0;
77896;PMS5003;67092;64.282;21.056;2023-02-01T03:01:42;0;0;
77896;PMS5003;67092;64.282;21.056;2023-02-01T03:04:07;0;0;
77896;PMS5003;67092;64.282;21.056;2023-02-01T03:06:34;1;0;
77896;PMS5003;67092;64.282;21.056;2023-02-01T03:08:59;0;0;
77896;PMS5003;67092;64.282;21.056;2023-02-01T03:11:24;2;1;
77896;PMS5003;67092;64.282;21.056;2023-02-01T03:13:51;0;0;
77896;PMS5003;67092;64.282;21.056;2023-02-01T03:16:17;0;0;
77896;PMS5003;67092;64.282;21.056;2023-02-01T03:18:42;0;0;
77896;PMS5003;67092;64.282;21.056;2023-02-01T03:21:08;0;0;
77896;PMS5003;67092;64.282;21.056;2023-02-01T03:23:33;0;0;
77896;PMS5003;67092;64.282;21.056;2023-02-01T03:25:58;0;0;
77896;PMS5003;67092;64.282;21.056;2023-02-01T03:28:23;0;0;
77896;PMS5003;67092;64.282;21.056;2023-02-01T03:30:49;0;0;
77896;PMS5003;67092;64.282;21.056;2023-02-01T03:33:15;0;0;
77896;PMS5003;67092;64.282;21.056;2023-02-01T03:35:42;0;0;
77896;PMS5003;67092;64.282;21.056;2023-02-01T03:38:07;0;0;
77896;PMS5003;67092;64.282;21.056;2023-02-01T03:40:32;1;0;
77896;PMS5003;67092;64.282;21.056;2023-02-01T03:42:57;0;0;
77896;PMS5003;67092;64.282;21.056;2023-02-01T03:45:23;0;0;
77896;PMS5003;67092;64.282;21.056;2023-02-01T03:47:49;0;0;
77896;PMS5003;67092;64.282;21.056;2023-02-01T03:50:15;0;0;
77896;PMS5003;67092;64.282;21.056;2023-02-01T03:52:40;0;0;
77896;PMS5003;67092;64.282;21.056;2023-02-01T03:55:06;1;1;
77896;PMS5003;67092;64.282;21.056;2023-02-01T03:57:32;0;0;
77896;PMS5003;67092;64.282;21.056;2023-02-01T04:02:22;1;1;
77896;PMS5003;67092;64.282;21.056;2023-02-01T04:04:48;0;0;
77896;PMS5003;67092;64.282;21.056;2023-02-01T04:07:13;0;0;
77896;PMS5003;67092;64.282;21.056;2023-02-01T04:09:39;0;0;
77896;PMS5003;67092;64.282;21.056;2023-02-01T04:12:04;0;0;
77896;PMS5003;67092;64.282;21.056;2023-02-01T04:14:30;0;0;
77896;PMS5003;67092;64.282;21.056;2023-02-01T04:16:55;0;0;
77896;PMS5003;67092;64.282;21.056;2023-02-01T04:19:21;0;0;
77896;PMS5003;67092;64.282;21.056;2023-02-01T04:21:47;0;0;
77896;PMS5003;67092;64.282;21.056;2023-02-01T04:24:12;0;0;
77896;PMS5003;67092;64.282;21.056;2023-02-01T04:26:38;0;0;
77896;PMS5003;67092;64.282;21.056;2023-02-01T04:29:04;0;0;
77896;PMS5003;67092;64.282;21.056;2023-02-01T04:31:29;0;0;
77896;PMS5003;67092;64.282;21.056;2023-02-01T04:33:55;1;1;
77896;PMS5003;67092;64.282;21.056;2023-02-01T04:36:21;0;0;
77896;PMS5003;67092;64.282;21.056;2023-02-01T04:38:46;0;0;
77896;PMS5003;67092;64.282;21.056;2023-02-01T04:41:12;0;0;
77896;PMS5003;67092;64.282;21.056;2023-02-01T04:43:37;0;0;
77896;PMS5003;67092;64.282;21.056;2023-02-01T04:46:03;0;0;
77896;PMS5003;67092;64.282;21.056;2023-02-01T04:48:28;1;0;
77896;PMS5003;67092;64.282;21.056;2023-02-01T04:50:54;1;0;
77896;PMS5003;67092;64.282;21.056;2023-02-01T04:53:20;1;1;
77896;PMS5003;67092;64.282;21.056;2023-02-01T04:55:48;0;0;
77896;PMS5003;67092;64.282;21.056;2023-02-01T04:58:11;0;0;
77896;PMS5003;67092;64.282;21.056;2023-02-01T05:00:37;0;0;
77896;PMS5003;67092;64.282;21.056;2023-02-01T05:03:02;0;0;
77896;PMS5003;67092;64.282;21.056;2023-02-01T05:05:28;0;0;
77896;PMS5003;67092;64.282;21.056;2023-02-01T05:07:53;0;0;
77896;PMS5003;67092;64.282;21.056;2023-02-01T05:10:19;0;0;
77896;PMS5003;67092;64.282;21.056;2023-02-01T05:12:44;1;0;
77896;PMS5003;67092;64.282;21.056;2023-02-01T05:15:10;0;0;
77896;PMS5003;67092;64.282;21.056;2023-02-01T05:17:36;0;0;
77896;PMS5003;67092;64.282;21.056;2023-02-01T05:20:01;0;0;
77896;PMS5003;67092;64.282;21.056;2023-02-01T05:22:27;2;2;
77896;PMS5003;67092;64.282;21.056;2023-02-01T05:24:52;1;1;
77896;PMS5003;67092;64.282;21.056;2023-02-01T05:27:18;0;0;
77896;PMS5003;67092;64.282;21.056;2023-02-01T05:29:44;0;0;
77896;PMS5003;67092;64.282;21.056;2023-02-01T05:32:09;0;0;
77896;PMS5003;67092;64.282;21.056;2023-02-01T05:34:35;0;0;
77896;PMS5003;67092;64.282;21.056;2023-02-01T05:37:00;0;0;
77896;PMS5003;67092;64.282;21.056;2023-02-01T05:39:26;1;1;
77896;PMS5003;67092;64.282;21.056;2023-02-01T05:41:52;0;0;
77896;PMS5003;67092;64.282;21.056;2023-02-01T05:44:17;0;0;
77896;PMS5003;67092;64.282;21.056;2023-02-01T05:46:43;1;1;
77896;PMS5003;67092;64.282;21.056;2023-02-01T05:49:08;0;0;
77896;PMS5003;67092;64.282;21.056;2023-02-01T05:51:34;1;0;
77896;PMS5003;67092;64.282;21.056;2023-02-01T05:54:00;0;0;
77896;PMS5003;67092;64.282;21.056;2023-02-01T05:56:25;0;0;
77896;PMS5003;67092;64.282;21.056;2023-02-01T05:58:51;2;0;
77896;PMS5003;67092;64.282;21.056;2023-02-01T06:01:16;0;0;
77896;PMS5003;67092;64.282;21.056;2023-02-01T06:03:42;0;0;
77896;PMS5003;67092;64.282;21.056;2023-02-01T06:06:08;1;0;
77896;PMS5003;67092;64.282;21.056;2023-02-01T06:08:33;0;0;
77896;PMS5003;67092;64.282;21.056;2023-02-01T06:10:59;0;0;
77896;PMS5003;67092;64.282;21.056;2023-02-01T06:13:24;0;0;
77896;PMS5003;67092;64.282;21.056;2023-02-01T06:15:50;0;0;
77896;PMS5003;67092;64.282;21.056;2023-02-01T06:18:16;0;0;
77896;PMS5003;67092;64.282;21.056;2023-02-01T06:20:41;0;0;
77896;PMS5003;67092;64.282;21.056;2023-02-01T06:23:07;2;0;
77896;PMS5003;67092;64.282;21.056;2023-02-01T06:25:33;1;1;
77896;PMS5003;67092;64.282;21.056;2023-02-01T06:27:59;0;0;
77896;PMS5003;67092;64.282;21.056;2023-02-01T06:30:24;0;0;
77896;PMS5003;67092;64.282;21.056;2023-02-01T06:32:50;0;0;
77896;PMS5003;67092;64.282;21.056;2023-02-01T06:35:15;0;0;
77896;PMS5003;67092;64.282;21.056;2023-02-01T06:37:41;0;0;
77896;PMS5003;67092;64.282;21.056;2023-02-01T06:40:07;0;0;
77896;PMS5003;67092;64.282;21.056;2023-02-01T06:42:32;0;0;
77896;PMS5003;67092;64.282;21.056;2023-02-01T06:44:57;0;0;
77896;PMS5003;67092;64.282;21.056;2023-02-01T06:47:23;0;0;
77896;PMS5003;67092;64.282;21.056;2023-02-01T06:49:48;0;0;
77896;PMS5003;67092;64.282;21.056;2023-02-01T06:52:14;0;0;
77896;PMS5003;67092;64.282;21.056;2023-02-01T06:54:40;1;0;
77896;PMS5003;67092;64.282;21.056;2023-02-01T06:57:05;1;0;
77896;PMS5003;67092;64.282;21.056;2023-02-01T06:59:31;0;0;
77896;PMS5003;67092;64.282;21.056;2023-02-01T07:01:57;0;0;
77896;PMS5003;67092;64.282;21.056;2023-02-01T07:04:22;0;0;
77896;PMS5003;67092;64.282;21.056;2023-02-01T07:06:48;0;0;
77896;PMS5003;67092;64.282;21.056;2023-02-01T07:09:13;0;0;
77896;PMS5003;67092;64.282;21.056;2023-02-01T07:11:39;0;0;
77896;PMS5003;67092;64.282;21.056;2023-02-01T07:14:05;0;0;
77896;PMS5003;67092;64.282;21.056;2023-02-01T07:16:30;0;0;
77896;PMS5003;67092;64.282;21.056;2023-02-01T07:18:56;0;0;
77896;PMS5003;67092;64.282;21.056;2023-02-01T07:21:21;0;0;
77896;PMS5003;67092;64.282;21.056;2023-02-01T07:23:47;0;0;
77896;PMS5003;67092;64.282;21.056;2023-02-01T07:26:13;0;0;
77896;PMS5003;67092;64.282;21.056;2023-02-01T07:28:38;0;0;
77896;PMS5003;67092;64.282;21.056;2023-02-01T07:31:04;0;0;
77896;PMS5003;67092;64.282;21.056;2023-02-01T07:33:29;0;0;
77896;PMS5003;67092;64.282;21.056;2023-02-01T07:35:55;0;0;
77896;PMS5003;67092;64.282;21.056;2023-02-01T07:38:21;0;0;
77896;PMS5003;67092;64.282;21.056;2023-02-01T07:40:46;0;0;
77896;PMS5003;67092;64.282;21.056;2023-02-01T07:43:12;0;0;
77896;PMS5003;67092;64.282;21.056;2023-02-01T07:45:37;0;0;
77896;PMS5003;67092;64.282;21.056;2023-02-01T07:48:03;0;0;
77896;PMS5003;67092;64.282;21.056;2023-02-01T07:50:29;1;1;
77896;PMS5003;67092;64.282;21.056;2023-02-01T07:52:54;0;0;
77896;PMS5003;67092;64.282;21.056;2023-02-01T07:55:20;0;0;
77896;PMS5003;67092;64.282;21.056;2023-02-01T07:57:46;1;0;
77896;PMS5003;67092;64.282;21.056;2023-02-01T08:00:12;0;0;
77896;PMS5003;67092;64.282;21.056;2023-02-01T08:02:37;0;0;
77896;PMS5003;67092;64.282;21.056;2023-02-01T08:05:02;0;0;
77896;PMS5003;67092;64.282;21.056;2023-02-01T08:07:28;0;0;
77896;PMS5003;67092;64.282;21.056;2023-02-01T08:09:53;0;0;
77896;PMS5003;67092;64.282;21.056;2023-02-01T08:12:19;0;0;
77896;PMS5003;67092;64.282;21.056;2023-02-01T08:14:45;0;0;
77896;PMS5003;67092;64.282;21.056;2023-02-01T08:17:10;0;0;
77896;PMS5003;67092;64.282;21.056;2023-02-01T08:19:36;0;0;
77896;PMS5003;67092;64.282;21.056;2023-02-01T08:22:01;0;0;
77896;PMS5003;67092;64.282;21.056;2023-02-01T08:24:27;1;0;
77896;PMS5003;67092;64.282;21.056;2023-02-01T08:26:53;0;0;
77896;PMS5003;67092;64.282;21.056;2023-02-01T08:29:18;1;0;
77896;PMS5003;67092;64.282;21.056;2023-02-01T08:31:44;1;1;
77896;PMS5003;67092;64.282;21.056;2023-02-01T08:34:09;0;0;
77896;PMS5003;67092;64.282;21.056;2023-02-01T08:36:35;1;1;
77896;PMS5003;67092;64.282;21.056;2023-02-01T08:39:01;1;1;
77896;PMS5003;67092;64.282;21.056;2023-02-01T08:41:27;2;1;
77896;PMS5003;67092;64.282;21.056;2023-02-01T08:43:52;1;1;
77896;PMS5003;67092;64.282;21.056;2023-02-01T08:46:17;1;1;
77896;PMS5003;67092;64.282;21.056;2023-02-01T08:48:44;2;2;
77896;PMS5003;67092;64.282;21.056;2023-02-01T08:51:09;2;1;
77896;PMS5003;67092;64.282;21.056;2023-02-01T08:53:34;1;1;
77896;PMS5003;67092;64.282;21.056;2023-02-01T08:56:00;1;1;
77896;PMS5003;67092;64.282;21.056;2023-02-01T08:58:25;1;0;
77896;PMS5003;67092;64.282;21.056;2023-02-01T09:00:51;2;2;
77896;PMS5003;67092;64.282;21.056;2023-02-01T09:03:17;0;0;
77896;PMS5003;67092;64.282;21.056;2023-02-01T09:05:43;2;2;
77896;PMS5003;67092;64.282;21.056;2023-02-01T09:08:08;1;0;
77896;PMS5003;67092;64.282;21.056;2023-02-01T09:10:34;2;1;
77896;PMS5003;67092;64.282;21.056;2023-02-01T09:12:59;0;0;
77896;PMS5003;67092;64.282;21.056;2023-02-01T09:15:25;1;1;
77896;PMS5003;67092;64.282;21.056;2023-02-01T09:17:50;3;2;
77896;PMS5003;67092;64.282;21.056;2023-02-01T09:20:16;2;2;
77896;PMS5003;67092;64.282;21.056;2023-02-01T09:22:42;2;2;
77896;PMS5003;67092;64.282;21.056;2023-02-01T09:25:08;4;4;
77896;PMS5003;67092;64.282;21.056;2023-02-01T09:27:33;1;1;
77896;PMS5003;67092;64.282;21.056;2023-02-01T09:29:58;5;4;
77896;PMS5003;67092;64.282;21.056;2023-02-01T09:32:24;7;7;
77896;PMS5003;67092;64.282;21.056;2023-02-01T09:34:50;9;8;
77896;PMS5003;67092;64.282;21.056;2023-02-01T09:37:15;10;8;
77896;PMS5003;67092;64.282;21.056;2023-02-01T09:39:41;10;8;
77896;PMS5003;67092;64.282;21.056;2023-02-01T09:42:10;12;10;
77896;PMS5003;67092;64.282;21.056;2023-02-01T09:44:40;10;10;
77896;PMS5003;67092;64.282;21.056;2023-02-01T09:46:58;11;9;
77896;PMS5003;67092;64.282;21.056;2023-02-01T09:49:26;12;12;
77896;PMS5003;67092;64.282;21.056;2023-02-01T09:51:49;10;8;
77896;PMS5003;67092;64.282;21.056;2023-02-01T09:54:16;11;10;
77896;PMS5003;67092;64.282;21.056;2023-02-01T09:56:41;12;12;
77896;PMS5003;67092;64.282;21.056;2023-02-01T09:59:09;14;13;
77896;PMS5003;67092;64.282;21.056;2023-02-01T10:01:31;9;9;
77896;PMS5003;67092;64.282;21.056;2023-02-01T10:03:58;12;10;
77896;PMS5003;67092;64.282;21.056;2023-02-01T10:06:32;13;12;
77896;PMS5003;67092;64.282;21.056;2023-02-01T10:08:55;16;14;
77896;PMS5003;67092;64.282;21.056;2023-02-01T10:11:18;14;13;
77896;PMS5003;67092;64.282;21.056;2023-02-01T10:13:44;16;15;
77896;PMS5003;67092;64.282;21.056;2023-02-01T10:16:09;14;13;
77896;PMS5003;67092;64.282;21.056;2023-02-01T10:18:34;14;12;
77896;PMS5003;67092;64.282;21.056;2023-02-01T10:20:57;19;18;
77896;PMS5003;67092;64.282;21.056;2023-02-01T10:23:27;18;14;
77896;PMS5003;67092;64.282;21.056;2023-02-01T10:25:49;18;17;
77896;PMS5003;67092;64.282;21.056;2023-02-01T10:28:13;14;13;
77896;PMS5003;67092;64.282;21.056;2023-02-01T10:30:38;16;16;
77896;PMS5003;67092;64.282;21.056;2023-02-01T10:33:07;19;18;
77896;PMS5003;67092;64.282;21.056;2023-02-01T10:35:29;16;16;
77896;PMS5003;67092;64.282;21.056;2023-02-01T10:37:54;15;15;
77896;PMS5003;67092;64.282;21.056;2023-02-01T10:40:19;18;18;
77896;PMS5003;67092;64.282;21.056;2023-02-01T10:42:44;19;18;
77896;PMS5003;67092;64.282;21.056;2023-02-01T10:45:11;17;15;
77896;PMS5003;67092;64.282;21.056;2023-02-01T10:47:35;20;18;
77896;PMS5003;67092;64.282;21.056;2023-02-01T10:50:03;18;16;
77896;PMS5003;67092;64.282;21.056;2023-02-01T10:52:31;18;17;
77896;PMS5003;67092;64.282;21.056;2023-02-01T10:54:52;20;19;
77896;PMS5003;67092;64.282;21.056;2023-02-01T10:57:20;20;18;
77896;PMS5003;67092;64.282;21.056;2023-02-01T10:59:43;16;16;
77896;PMS5003;67092;64.282;21.056;2023-02-01T11:02:14;24;23;
77896;PMS5003;67092;64.282;21.056;2023-02-01T11:04:35;17;16;
77896;PMS5003;67092;64.282;21.056;2023-02-01T11:07:05;19;17;
77896;PMS5003;67092;64.282;21.056;2023-02-01T11:09:26;20;20;
77896;PMS5003;67092;64.282;21.056;2023-02-01T11:11:53;23;21;
77896;PMS5003;67092;64.282;21.056;2023-02-01T11:14:17;14;14;
77896;PMS5003;67092;64.282;21.056;2023-02-01T11:16:43;17;17;
77896;PMS5003;67092;64.282;21.056;2023-02-01T11:19:07;17;16;
77896;PMS5003;67092;64.282;21.056;2023-02-01T11:21:32;18;17;
77896;PMS5003;67092;64.282;21.056;2023-02-01T11:24:00;18;18;
77896;PMS5003;67092;64.282;21.056;2023-02-01T11:26:23;22;20;
77896;PMS5003;67092;64.282;21.056;2023-02-01T11:28:50;21;19;
77896;PMS5003;67092;64.282;21.056;2023-02-01T11:31:14;18;18;
77896;PMS5003;67092;64.282;21.056;2023-02-01T11:33:42;14;14;
77896;PMS5003;67092;64.282;21.056;2023-02-01T11:36:06;19;17;
77896;PMS5003;67092;64.282;21.056;2023-02-01T11:38:31;17;15;
77896;PMS5003;67092;64.282;21.056;2023-02-01T11:40:55;18;18;
77896;PMS5003;67092;64.282;21.056;2023-02-01T11:43:22;17;16;
77896;PMS5003;67092;64.282;21.056;2023-02-01T11:48:14;18;17;
77896;PMS5003;67092;64.282;21.056;2023-02-01T11:50:38;17;17;
77896;PMS5003;67092;64.282;21.056;2023-02-01T11:53:06;17;15;
77896;PMS5003;67092;64.282;21.056;2023-02-01T11:57:57;15;15;
77896;PMS5003;67092;64.282;21.056;2023-02-01T12:02:51;16;16;
77896;PMS5003;67092;64.282;21.056;2023-02-01T12:07:40;14;14;
77896;PMS5003;67092;64.282;21.056;2023-02-01T12:10:04;17;16;
77896;PMS5003;67092;64.282;21.056;2023-02-01T12:12:28;15;14;
77896;PMS5003;67092;64.282;21.056;2023-02-01T12:14:59;13;13;
77896;PMS5003;67092;64.282;21.056;2023-02-01T12:19:48;16;14;
77896;PMS5003;67092;64.282;21.056;2023-02-01T12:22:14;16;14;
77896;PMS5003;67092;64.282;21.056;2023-02-01T12:24:47;16;14;
77896;PMS5003;67092;64.282;21.056;2023-02-01T12:27:03;17;16;
77896;PMS5003;67092;64.282;21.056;2023-02-01T12:29:31;17;14;
77896;PMS5003;67092;64.282;21.056;2023-02-01T12:34:26;17;17;
77896;PMS5003;67092;64.282;21.056;2023-02-01T12:36:44;14;13;
77896;PMS5003;67092;64.282;21.056;2023-02-01T12:39:10;18;17;
77896;PMS5003;67092;64.282;21.056;2023-02-01T12:41:38;17;13;
77896;PMS5003;67092;64.282;21.056;2023-02-01T12:43:58;16;16;
77896;PMS5003;67092;64.282;21.056;2023-02-01T12:46:25;13;12;
77896;PMS5003;67092;64.282;21.056;2023-02-01T12:48:52;16;15;
77896;PMS5003;67092;64.282;21.056;2023-02-01T12:51:15;15;15;
77896;PMS5003;67092;64.282;21.056;2023-02-01T12:53:43;14;13;
77896;PMS5003;67092;64.282;21.056;2023-02-01T12:56:07;14;12;
77896;PMS5003;67092;64.282;21.056;2023-02-01T12:58:32;13;13;
77896;PMS5003;67092;64.282;21.056;2023-02-01T13:00:57;11;11;
77896;PMS5003;67092;64.282;21.056;2023-02-01T13:03:25;13;12;
77896;PMS5003;67092;64.282;21.056;2023-02-01T13:05:55;12;12;
77896;PMS5003;67092;64.282;21.056;2023-02-01T13:08:14;13;12;
77896;PMS5003;67092;64.282;21.056;2023-02-01T13:10:38;13;13;
77896;PMS5003;67092;64.282;21.056;2023-02-01T13:13:05;13;12;
77896;PMS5003;67092;64.282;21.056;2023-02-01T13:15:30;14;12;
77896;PMS5003;67092;64.282;21.056;2023-02-01T13:17:56;14;14;
77896;PMS5003;67092;64.282;21.056;2023-02-01T13:20:22;14;14;
77896;PMS5003;67092;64.282;21.056;2023-02-01T13:22:47;15;13;
77896;PMS5003;67092;64.282;21.056;2023-02-01T13:25:12;13;13;
77896;PMS5003;67092;64.282;21.056;2023-02-01T13:27:37;13;12;
77896;PMS5003;67092;64.282;21.056;2023-02-01T13:30:04;11;11;
77896;PMS5003;67092;64.282;21.056;2023-02-01T13:32:33;16;15;
77896;PMS5003;67092;64.282;21.056;2023-02-01T13:37:23;11;11;
77896;PMS5003;67092;64.282;21.056;2023-02-01T13:39:47;11;11;
77896;PMS5003;67092;64.282;21.056;2023-02-01T13:42:13;11;11;
77896;PMS5003;67092;64.282;21.056;2023-02-01T13:44:37;13;12;
77896;PMS5003;67092;64.282;21.056;2023-02-01T13:47:02;13;11;
77896;PMS5003;67092;64.282;21.056;2023-02-01T13:49:28;13;11;
77896;PMS5003;67092;64.282;21.056;2023-02-01T13:51:53;9;9;
77896;PMS5003;67092;64.282;21.056;2023-02-01T13:54:25;12;12;
77896;PMS5003;67092;64.282;21.056;2023-02-01T13:56:44;13;13;
77896;PMS5003;67092;64.282;21.056;2023-02-01T14:01:35;10;10;
77896;PMS5003;67092;64.282;21.056;2023-02-01T14:04:01;15;12;
77896;PMS5003;67092;64.282;21.056;2023-02-01T14:06:35;12;11;
77896;PMS5003;67092;64.282;21.056;2023-02-01T14:13:43;15;13;
77896;PMS5003;67092;64.282;21.056;2023-02-01T14:16:13;11;10;
77896;PMS5003;67092;64.282;21.056;2023-02-01T14:23:27;13;13;
77896;PMS5003;67092;64.282;21.056;2023-02-01T14:26:01;12;11;
77896;PMS5003;67092;64.282;21.056;2023-02-01T14:28:21;13;12;
77896;PMS5003;67092;64.282;21.056;2023-02-01T14:30:43;11;11;
77896;PMS5003;67092;64.282;21.056;2023-02-01T14:33:12;11;10;
77896;PMS5003;67092;64.282;21.056;2023-02-01T14:35:34;15;11;
77896;PMS5003;67092;64.282;21.056;2023-02-01T14:38:00;15;12;
77896;PMS5003;67092;64.282;21.056;2023-02-01T14:40:26;13;13;
77896;PMS5003;67092;64.282;21.056;2023-02-01T14:42:52;13;11;
77896;PMS5003;67092;64.282;21.056;2023-02-01T14:47:42;13;13;
77896;PMS5003;67092;64.282;21.056;2023-02-01T14:50:12;12;11;
77896;PMS5003;67092;64.282;21.056;2023-02-01T14:52:33;10;10;
77896;PMS5003;67092;64.282;21.056;2023-02-01T14:55:00;16;12;
77896;PMS5003;67092;64.282;21.056;2023-02-01T14:57:25;9;9;
77896;PMS5003;67092;64.282;21.056;2023-02-01T14:59:58;14;11;
77896;PMS5003;67092;64.282;21.056;2023-02-01T15:02:18;11;10;
77896;PMS5003;67092;64.282;21.056;2023-02-01T15:04:41;13;12;
77896;PMS5003;67092;64.282;21.056;2023-02-01T15:07:07;12;11;
77896;PMS5003;67092;64.282;21.056;2023-02-01T15:09:33;11;10;
77896;PMS5003;67092;64.282;21.056;2023-02-01T15:11:59;12;12;
77896;PMS5003;67092;64.282;21.056;2023-02-01T15:14:23;11;11;
77896;PMS5003;67092;64.282;21.056;2023-02-01T15:16:48;11;11;
77896;PMS5003;67092;64.282;21.056;2023-02-01T15:19:14;10;9;
77896;PMS5003;67092;64.282;21.056;2023-02-01T15:21:43;11;11;
77896;PMS5003;67092;64.282;21.056;2023-02-01T15:24:10;11;10;
77896;PMS5003;67092;64.282;21.056;2023-02-01T15:26:31;11;11;
77896;PMS5003;67092;64.282;21.056;2023-02-01T15:28:56;11;10;
77896;PMS5003;67092;64.282;21.056;2023-02-01T15:36:17;9;9;
77896;PMS5003;67092;64.282;21.056;2023-02-01T15:38:39;11;11;
77896;PMS5003;67092;64.282;21.056;2023-02-01T15:41:05;11;11;
77896;PMS5003;67092;64.282;21.056;2023-02-01T15:43:30;12;9;
77896;PMS5003;67092;64.282;21.056;2023-02-01T15:45:55;13;10;
77896;PMS5003;67092;64.282;21.056;2023-02-01T15:48:21;11;10;
77896;PMS5003;67092;64.282;21.056;2023-02-01T15:50:46;10;10;
77896;PMS5003;67092;64.282;21.056;2023-02-01T15:53:13;14;13;
77896;PMS5003;67092;64.282;21.056;2023-02-01T15:55:38;13;11;
77896;PMS5003;67092;64.282;21.056;2023-02-01T15:58:04;11;11;
77896;PMS5003;67092;64.282;21.056;2023-02-01T16:00:29;12;11;
77896;PMS5003;67092;64.282;21.056;2023-02-01T16:02:54;11;11;
77896;PMS5003;67092;64.282;21.056;2023-02-01T16:05:27;13;12;
77896;PMS5003;67092;64.282;21.056;2023-02-01T16:07:53;8;8;
77896;PMS5003;67092;64.282;21.056;2023-02-01T16:15:02;12;12;
77896;PMS5003;67092;64.282;21.056;2023-02-01T16:17:28;12;11;
77896;PMS5003;67092;64.282;21.056;2023-02-01T16:19:53;9;9;
77896;PMS5003;67092;64.282;21.056;2023-02-01T16:22:18;13;13;
77896;PMS5003;67092;64.282;21.056;2023-02-01T16:24:44;12;11;
77896;PMS5003;67092;64.282;21.056;2023-02-01T16:27:10;12;12;
77896;PMS5003;67092;64.282;21.056;2023-02-01T16:29:35;11;10;
77896;PMS5003;67092;64.282;21.056;2023-02-01T16:32:01;11;10;
77896;PMS5003;67092;64.282;21.056;2023-02-01T16:34:27;11;11;
77896;PMS5003;67092;64.282;21.056;2023-02-01T16:36:52;12;11;
77896;PMS5003;67092;64.282;21.056;2023-02-01T16:39:18;10;8;
77896;PMS5003;67092;64.282;21.056;2023-02-01T16:41:44;13;11;
77896;PMS5003;67092;64.282;21.056;2023-02-01T16:44:09;9;9;
77896;PMS5003;67092;64.282;21.056;2023-02-01T16:46:35;10;10;
77896;PMS5003;67092;64.282;21.056;2023-02-01T16:49:00;15;12;
77896;PMS5003;67092;64.282;21.056;2023-02-01T16:51:27;8;8;
77896;PMS5003;67092;64.282;21.056;2023-02-01T16:53:52;9;9;
77896;PMS5003;67092;64.282;21.056;2023-02-01T16:56:18;11;10;
77896;PMS5003;67092;64.282;21.056;2023-02-01T16:58:43;8;8;
77896;PMS5003;67092;64.282;21.056;2023-02-01T17:01:09;13;11;